Time;durP1;ratioP1;P1;durP2;ratioP2;P2;SDS_P1;SDS_P2;PMS_P1;PMS_P2;Temp;Humidity;BMP_temperature;BMP_pressure;BME280_temperature;BME280_humidity;BME280_pressure;Samples;Min_cycle;Max_cycle;Signal;HPM_P1;HPM_P2
2021/09/10 00:02:13;;;;;;;5.45;4.75;;;25.60;61.40;;;;;;4956329;28;20035;-80
2021/09/10 00:04:39;;;;;;;5.45;4.60;;;25.70;61.50;;;;;;4940965;28;20484;-80
2021/09/10 00:07:04;;;;;;;5.38;4.47;;;25.60;61.50;;;;;;4964567;28;20484;-80
2021/09/10 00:09:30;;;;;;;5.15;4.40;;;25.60;61.50;;;;;;4957161;28;20039;-80
2021/09/10 00:11:56;;;;;;;5.18;4.25;;;25.60;61.40;;;;;;4949114;28;20038;-80
2021/09/10 00:14:22;;;;;;;5.88;4.80;;;25.60;61.50;;;;;;4973789;28;20026;-80
2021/09/10 00:16:48;;;;;;;5.32;4.35;;;25.60;61.50;;;;;;4974084;28;20042;-80
2021/09/10 00:19:13;;;;;;;5.43;4.22;;;25.50;61.40;;;;;;4924404;28;20065;-80
2021/09/10 00:21:39;;;;;;;5.32;4.07;;;25.50;61.50;;;;;;4922327;29;20384;-80
2021/09/10 00:24:05;;;;;;;5.03;4.13;;;25.50;61.50;;;;;;4968256;28;20027;-80
2021/09/10 00:26:31;;;;;;;5.72;4.63;;;25.50;61.50;;;;;;4938286;28;20643;-80
2021/09/10 00:28:57;;;;;;;6.20;4.85;;;25.50;61.50;;;;;;4928206;29;20540;-80
2021/09/10 00:31:22;;;;;;;5.80;4.47;;;25.40;61.40;;;;;;4971190;28;20050;-80
2021/09/10 00:33:48;;;;;;;5.72;4.38;;;25.40;61.50;;;;;;4940616;28;20503;-80
2021/09/10 00:36:14;;;;;;;6.18;4.70;;;25.40;61.50;;;;;;4940205;28;20035;-80
2021/09/10 00:38:39;;;;;;;6.00;4.35;;;25.40;61.50;;;;;;4973811;28;20023;-80
2021/09/10 00:41:05;;;;;;;6.05;4.72;;;25.30;61.40;;;;;;4924057;28;20040;-80
2021/09/10 00:43:31;;;;;;;5.70;4.68;;;25.30;61.40;;;;;;4964719;28;20122;-80
2021/09/10 00:45:58;;;;;;;5.93;4.78;;;25.30;61.50;;;;;;4940056;28;20117;-80
2021/09/10 00:48:25;;;;;;;5.95;4.10;;;25.30;61.60;;;;;;4955088;28;20027;-80
2021/09/10 00:50:51;;;;;;;5.95;4.50;;;25.30;61.60;;;;;;4965513;28;20487;-80
2021/09/10 00:53:17;;;;;;;5.82;4.65;;;25.30;61.60;;;;;;4936093;28;20109;-80
2021/09/10 00:55:44;;;;;;;5.68;4.18;;;25.30;61.60;;;;;;4954864;28;20035;-80
2021/09/10 00:58:11;;;;;;;5.60;4.78;;;25.20;61.60;;;;;;4956065;28;20038;-80
2021/09/10 01:00:36;;;;;;;5.35;4.03;;;25.20;61.70;;;;;;4948096;28;20479;-80
2021/09/10 01:03:03;;;;;;;6.13;4.65;;;25.20;61.70;;;;;;4955985;28;20029;-80
2021/09/10 01:05:29;;;;;;;6.47;4.57;;;25.20;61.70;;;;;;4963605;28;20498;-80
2021/09/10 01:07:56;;;;;;;6.43;4.68;;;25.20;61.70;;;;;;4940560;28;20078;-80
2021/09/10 01:10:22;;;;;;;6.50;4.75;;;25.10;61.70;;;;;;4972854;28;20062;-80
2021/09/10 01:12:50;;;;;;;5.63;4.43;;;25.10;61.70;;;;;;4931939;28;20039;-78
2021/09/10 01:15:16;;;;;;;5.93;4.45;;;25.10;61.70;;;;;;4943973;28;20399;-78
2021/09/10 01:17:42;;;;;;;5.90;4.60;;;25.10;61.70;;;;;;4955633;28;20018;-81
2021/09/10 01:20:09;;;;;;;5.78;4.93;;;25.10;61.90;;;;;;4964186;28;20109;-80
2021/09/10 01:22:36;;;;;;;5.45;4.28;;;25.10;61.90;;;;;;4939301;28;20037;-80
2021/09/10 01:25:15;;;;;;;6.13;4.90;;;25.00;61.80;;;;;;4964830;28;20106;-79
2021/09/10 01:27:48;;;;;;;6.20;5.03;;;25.00;61.90;;;;;;4955257;28;20428;-80
2021/09/10 01:30:17;;;;;;;5.80;4.55;;;25.00;61.80;;;;;;4954854;28;20407;-80
2021/09/10 01:32:43;;;;;;;5.72;4.75;;;25.00;61.80;;;;;;4939979;28;20420;-80
2021/09/10 01:35:09;;;;;;;6.13;4.47;;;25.00;61.90;;;;;;4963099;28;20089;-80
2021/09/10 01:37:35;;;;;;;5.72;4.90;;;25.00;61.90;;;;;;4939576;28;20026;-79
2021/09/10 01:40:02;;;;;;;5.60;4.57;;;24.90;61.90;;;;;;4955480;28;20463;-80
2021/09/10 01:42:27;;;;;;;5.38;4.70;;;24.90;61.90;;;;;;4942055;28;20598;-79
2021/09/10 01:44:53;;;;;;;5.30;4.70;;;24.90;61.90;;;;;;4939155;28;20147;-80
2021/09/10 01:47:19;;;;;;;5.60;4.68;;;24.80;61.90;;;;;;4947272;28;20081;-80
2021/09/10 01:49:45;;;;;;;5.40;4.28;;;24.80;61.90;;;;;;4972186;28;20126;-80
2021/09/10 01:52:11;;;;;;;5.55;4.35;;;24.80;61.90;;;;;;4953374;28;20071;-80
2021/09/10 01:54:36;;;;;;;6.25;4.75;;;24.80;62.00;;;;;;4939292;28;20034;-80
2021/09/10 01:57:03;;;;;;;5.65;4.57;;;24.80;62.00;;;;;;4920395;29;20320;-80
2021/09/10 01:59:28;;;;;;;6.03;4.95;;;24.80;62.00;;;;;;4964014;28;20877;-80
2021/09/10 02:01:54;;;;;;;5.43;4.40;;;24.80;62.10;;;;;;4971682;28;20046;-80
2021/09/10 02:04:21;;;;;;;6.03;4.80;;;24.70;62.00;;;;;;4938845;28;20034;-80
2021/09/10 02:06:47;;;;;;;5.50;4.57;;;24.70;62.10;;;;;;4943463;28;20063;-80
2021/09/10 02:09:13;;;;;;;6.60;5.07;;;24.70;62.10;;;;;;4978311;28;20046;-80
2021/09/10 02:11:39;;;;;;;6.13;4.78;;;24.70;62.10;;;;;;4931447;28;20032;-80
2021/09/10 02:14:05;;;;;;;5.18;3.97;;;24.60;62.10;;;;;;4938696;28;20407;-80
2021/09/10 02:16:31;;;;;;;6.10;4.63;;;24.60;62.10;;;;;;4969588;28;20159;-80
2021/09/10 02:18:57;;;;;;;5.85;4.63;;;24.60;62.10;;;;;;4972613;28;20106;-80
2021/09/10 02:21:23;;;;;;;6.43;4.78;;;24.60;62.10;;;;;;4946580;28;20539;-80
2021/09/10 02:23:49;;;;;;;5.70;4.68;;;24.60;62.10;;;;;;4972708;28;20055;-80
2021/09/10 02:26:14;;;;;;;6.53;4.63;;;24.60;62.20;;;;;;4938912;28;20110;-80
2021/09/10 02:28:40;;;;;;;5.53;4.63;;;24.60;62.20;;;;;;4958545;28;20026;-79
2021/09/10 02:31:06;;;;;;;5.82;4.90;;;24.60;62.20;;;;;;4958793;28;20181;-79
2021/09/10 02:33:32;;;;;;;6.10;4.80;;;24.60;62.30;;;;;;4923349;29;20031;-80
2021/09/10 02:35:58;;;;;;;5.82;4.97;;;24.50;62.20;;;;;;4970972;28;20054;-79
2021/09/10 02:38:25;;;;;;;5.72;4.45;;;24.50;62.20;;;;;;4940977;28;20046;-80
2021/09/10 02:40:51;;;;;;;5.80;4.63;;;24.50;62.30;;;;;;4942273;28;20178;-80
2021/09/10 02:43:17;;;;;;;6.15;4.70;;;24.50;62.30;;;;;;4974854;28;20063;-79
2021/09/10 02:45:43;;;;;;;5.55;4.47;;;24.50;62.30;;;;;;4939504;28;20116;-80
2021/09/10 02:48:09;;;;;;;5.63;4.60;;;24.40;62.30;;;;;;4960558;28;20050;-80
2021/09/10 02:50:35;;;;;;;6.03;4.80;;;24.40;62.40;;;;;;4957893;28;20061;-80
2021/09/10 02:53:01;;;;;;;6.65;4.60;;;24.40;62.40;;;;;;4942202;28;20117;-79
2021/09/10 02:55:29;;;;;;;5.45;4.28;;;24.40;62.40;;;;;;4928795;28;20117;-80
2021/09/10 02:57:55;;;;;;;5.97;4.57;;;24.40;62.40;;;;;;4975710;28;20103;-80
2021/09/10 03:00:21;;;;;;;5.78;4.45;;;24.30;62.40;;;;;;4958112;28;20039;-80
2021/09/10 03:02:49;;;;;;;5.30;4.10;;;24.30;62.40;;;;;;4950742;28;20027;-79
2021/09/10 03:05:15;;;;;;;5.20;4.40;;;24.30;62.40;;;;;;4957983;28;20058;-79
2021/09/10 03:07:41;;;;;;;5.80;4.50;;;24.30;62.40;;;;;;4975427;28;20031;-80
2021/09/10 03:10:09;;;;;;;5.47;4.22;;;24.30;62.50;;;;;;4958180;28;20035;-79
2021/09/10 03:12:36;;;;;;;5.72;4.47;;;24.20;62.40;;;;;;4974438;28;20815;-80
2021/09/10 03:15:08;;;;;;;5.70;4.70;;;24.20;62.50;;;;;;4941984;28;20035;-80
2021/09/10 03:17:33;;;;;;;6.18;4.68;;;24.20;62.50;;;;;;4960449;28;20394;-79
2021/09/10 03:19:59;;;;;;;6.05;4.95;;;24.20;62.50;;;;;;4951391;28;20114;-79
2021/09/10 03:22:25;;;;;;;5.60;4.78;;;24.20;62.50;;;;;;4926000;28;20031;-79
2021/09/10 03:24:50;;;;;;;5.05;4.20;;;24.20;62.50;;;;;;4958051;28;20483;-80
2021/09/10 03:27:17;;;;;;;7.07;5.13;;;24.20;62.60;;;;;;4925168;28;20061;-80
2021/09/10 03:29:42;;;;;;;5.25;4.30;;;24.10;62.50;;;;;;4941186;28;20090;-80
2021/09/10 03:32:08;;;;;;;5.22;4.03;;;24.10;62.60;;;;;;4974935;28;20031;-79
2021/09/10 03:34:34;;;;;;;5.63;4.63;;;24.10;62.60;;;;;;4956500;28;20078;-80
2021/09/10 03:37:00;;;;;;;5.60;4.32;;;24.10;62.60;;;;;;4938033;28;20038;-80
2021/09/10 03:39:26;;;;;;;5.15;4.20;;;24.10;62.60;;;;;;4956004;28;20027;-80
2021/09/10 03:41:52;;;;;;;5.80;4.60;;;24.00;62.60;;;;;;4941503;28;20483;-80
2021/09/10 03:44:17;;;;;;;5.60;4.38;;;24.00;62.60;;;;;;4941216;28;20027;-79
2021/09/10 03:46:43;;;;;;;5.55;4.32;;;24.00;62.70;;;;;;4957495;28;20038;-80
2021/09/10 03:49:09;;;;;;;5.22;4.55;;;24.00;62.70;;;;;;4963188;28;20038;-80
2021/09/10 03:51:35;;;;;;;5.50;4.28;;;24.00;62.70;;;;;;4939276;28;20121;-79
2021/09/10 03:54:00;;;;;;;5.65;4.40;;;24.00;62.70;;;;;;4938053;28;20094;-80
2021/09/10 03:56:26;;;;;;;5.50;3.95;;;23.90;62.70;;;;;;4941020;28;20042;-81
2021/09/10 03:58:52;;;;;;;5.57;4.07;;;23.90;62.70;;;;;;4941017;28;20026;-80
2021/09/10 04:01:19;;;;;;;5.35;4.20;;;23.90;62.80;;;;;;4925505;28;20038;-79
2021/09/10 04:03:45;;;;;;;5.28;4.00;;;23.90;62.80;;;;;;4940953;28;20034;-80
2021/09/10 04:06:12;;;;;;;5.00;3.85;;;23.90;62.80;;;;;;4941132;28;20062;-80
2021/09/10 04:08:39;;;;;;;4.95;3.83;;;23.80;62.80;;;;;;4940442;28;20097;-80
2021/09/10 04:11:06;;;;;;;5.72;4.05;;;23.80;62.80;;;;;;4945442;28;20035;-79
2021/09/10 04:13:33;;;;;;;5.03;3.78;;;23.80;62.90;;;;;;4959634;28;20054;-80
2021/09/10 04:15:58;;;;;;;4.85;3.85;;;23.80;62.90;;;;;;4948049;28;20432;-80
2021/09/10 04:18:24;;;;;;;5.55;3.90;;;23.80;62.90;;;;;;4940468;28;20459;-80
2021/09/10 04:20:50;;;;;;;5.20;3.80;;;23.80;62.90;;;;;;4923121;28;20034;-79
2021/09/10 04:23:16;;;;;;;4.70;4.03;;;23.70;62.90;;;;;;4956276;28;20070;-79
2021/09/10 04:25:42;;;;;;;5.88;4.10;;;23.80;63.00;;;;;;4973509;28;20023;-80
2021/09/10 04:28:07;;;;;;;5.28;3.90;;;23.70;63.00;;;;;;4921974;28;20031;-80
2021/09/10 04:30:33;;;;;;;5.05;3.80;;;23.70;63.00;;;;;;4933992;28;20070;-80
2021/09/10 04:32:59;;;;;;;5.00;3.90;;;23.70;63.00;;;;;;4940359;28;20126;-80
2021/09/10 04:35:25;;;;;;;5.10;4.28;;;23.70;63.00;;;;;;4955759;28;20115;-80
2021/09/10 04:37:51;;;;;;;5.30;3.97;;;23.70;63.00;;;;;;4964199;28;20034;-80
2021/09/10 04:40:18;;;;;;;5.15;3.85;;;23.60;63.00;;;;;;4956580;28;20038;-80
2021/09/10 04:42:44;;;;;;;5.03;3.38;;;23.60;63.10;;;;;;4939785;28;20039;-80
2021/09/10 04:45:10;;;;;;;4.50;3.50;;;23.60;63.10;;;;;;4971898;28;20126;-80
2021/09/10 04:47:36;;;;;;;4.65;3.63;;;23.60;63.10;;;;;;4973008;28;20058;-80
2021/09/10 04:50:03;;;;;;;4.50;3.42;;;23.60;63.80;;;;;;4955471;28;20039;-79
2021/09/10 04:52:29;;;;;;;4.43;3.67;;;23.60;63.10;;;;;;4963604;28;20050;-79
2021/09/10 04:54:55;;;;;;;5.25;3.88;;;23.60;63.20;;;;;;4940227;28;20118;-80
2021/09/10 04:57:21;;;;;;;5.18;3.83;;;23.50;63.10;;;;;;4939394;28;20045;-79
2021/09/10 04:59:47;;;;;;;4.32;3.55;;;23.50;63.20;;;;;;4950457;28;20038;-79
2021/09/10 05:02:12;;;;;;;4.80;3.45;;;23.50;63.30;;;;;;4918480;28;20483;-79
2021/09/10 05:04:38;;;;;;;4.40;3.33;;;23.50;63.30;;;;;;4940099;28;20025;-79
2021/09/10 05:07:04;;;;;;;4.20;3.25;;;23.50;63.30;;;;;;4940075;28;20050;-79
2021/09/10 05:09:30;;;;;;;4.82;3.72;;;23.40;63.30;;;;;;4931849;28;20031;-79
2021/09/10 05:11:55;;;;;;;4.60;3.55;;;23.40;63.30;;;;;;4951353;28;20495;-79
2021/09/10 05:14:21;;;;;;;4.28;3.45;;;23.40;63.30;;;;;;4938532;28;20121;-79
2021/09/10 05:16:47;;;;;;;5.18;3.70;;;23.40;63.40;;;;;;4951378;28;20110;-79
2021/09/10 05:19:12;;;;;;;4.13;3.17;;;23.40;63.40;;;;;;4954702;28;20035;-79
2021/09/10 05:21:39;;;;;;;4.40;3.72;;;23.30;63.40;;;;;;4939221;28;20376;-80
2021/09/10 05:24:05;;;;;;;4.80;3.28;;;23.30;63.40;;;;;;4948041;28;20114;-81
2021/09/10 05:26:32;;;;;;;4.82;3.70;;;23.30;63.40;;;;;;4976818;28;20022;-81
2021/09/10 05:28:58;;;;;;;4.40;3.20;;;23.40;63.50;;;;;;4927769;29;20046;-81
2021/09/10 05:31:24;;;;;;;4.32;3.40;;;23.30;63.40;;;;;;4955122;28;20121;-82
2021/09/10 05:33:49;;;;;;;4.15;2.90;;;23.30;63.40;;;;;;4939712;28;20030;-81
2021/09/10 05:36:15;;;;;;;4.53;3.35;;;23.30;63.50;;;;;;4939605;28;20388;-81
2021/09/10 05:38:41;;;;;;;4.30;3.35;;;23.30;63.50;;;;;;4944838;28;20427;-85
2021/09/10 05:41:07;;;;;;;3.67;2.80;;;23.30;63.50;;;;;;4948420;28;20479;-82
2021/09/10 05:43:32;;;;;;;4.50;3.40;;;23.20;63.40;;;;;;4955498;28;20027;-93
2021/09/10 05:45:58;;;;;;;4.63;3.25;;;23.20;63.50;;;;;;4942097;28;20039;-81
2021/09/10 05:48:24;;;;;;;4.18;3.20;;;23.20;63.50;;;;;;4949118;29;20497;-82
2021/09/10 05:50:50;;;;;;;4.95;3.78;;;23.20;63.50;;;;;;4922638;29;20138;-81
2021/09/10 05:53:17;;;;;;;4.15;3.15;;;23.20;63.60;;;;;;4943356;28;20054;-82
2021/09/10 05:55:44;;;;;;;4.20;3.15;;;23.20;63.70;;;;;;4955708;28;20054;-80
2021/09/10 05:58:10;;;;;;;4.30;3.53;;;23.10;63.60;;;;;;4939364;28;20045;-81
2021/09/10 06:00:37;;;;;;;4.95;3.25;;;23.10;63.70;;;;;;4972457;28;20027;-83
2021/09/10 06:03:04;;;;;;;4.43;3.22;;;23.20;63.80;;;;;;4966816;28;20030;-82
2021/09/10 06:05:30;;;;;;;4.13;3.00;;;23.10;63.80;;;;;;4936123;28;20553;-81
2021/09/10 06:07:56;;;;;;;4.20;2.90;;;23.10;63.80;;;;;;4928707;28;20027;-82
2021/09/10 06:10:22;;;;;;;3.88;2.90;;;23.10;63.80;;;;;;4966754;28;20392;-81
2021/09/10 06:12:49;;;;;;;3.53;2.55;;;23.10;63.80;;;;;;4950569;28;20030;-82
2021/09/10 06:15:15;;;;;;;3.53;2.80;;;23.10;63.80;;;;;;4959248;28;20062;-82
2021/09/10 06:17:42;;;;;;;4.57;3.20;;;23.10;63.80;;;;;;4976423;28;20106;-81
2021/09/10 06:20:09;;;;;;;4.13;2.72;;;23.10;63.80;;;;;;4959308;28;20038;-82
2021/09/10 06:22:35;;;;;;;3.97;3.00;;;23.10;63.80;;;;;;4945161;28;20371;-81
2021/09/10 06:25:02;;;;;;;4.53;3.28;;;23.10;63.90;;;;;;4959403;28;20023;-82
2021/09/10 06:27:29;;;;;;;3.85;2.83;;;23.10;63.90;;;;;;4977391;28;20042;-83
2021/09/10 06:29:56;;;;;;;3.90;2.75;;;23.10;63.90;;;;;;4959523;28;20042;-83
2021/09/10 06:32:24;;;;;;;3.58;2.67;;;23.10;63.90;;;;;;4966283;28;20038;-83
2021/09/10 06:34:53;;;;;;;3.30;2.67;;;23.10;64.00;;;;;;4959195;28;20511;-82
2021/09/10 06:37:20;;;;;;;4.45;3.03;;;23.10;64.00;;;;;;4958700;28;20039;-82
2021/09/10 06:39:46;;;;;;;3.83;2.80;;;23.10;64.00;;;;;;4976350;28;20031;-82
2021/09/10 06:42:13;;;;;;;3.70;2.80;;;23.10;64.00;;;;;;4948451;28;20058;-82
2021/09/10 06:44:38;;;;;;;3.85;3.10;;;23.10;64.00;;;;;;4976384;28;20077;-82
2021/09/10 06:47:05;;;;;;;4.60;3.05;;;23.10;64.00;;;;;;4975553;28;20356;-83
2021/09/10 06:49:30;;;;;;;4.00;2.90;;;23.10;64.00;;;;;;4943755;28;20053;-82
2021/09/10 06:51:57;;;;;;;3.70;2.80;;;23.10;64.00;;;;;;4943412;28;20471;-82
2021/09/10 06:54:22;;;;;;;3.47;2.50;;;23.10;64.00;;;;;;4959315;28;20729;-83
2021/09/10 06:56:50;;;;;;;3.83;2.85;;;23.10;64.00;;;;;;4943700;28;20463;-82
2021/09/10 06:59:19;;;;;;;3.60;2.50;;;23.20;64.10;;;;;;4959429;28;20062;-82
2021/09/10 07:01:47;;;;;;;3.65;2.60;;;23.10;64.00;;;;;;4974716;28;20042;-83
2021/09/10 07:04:13;;;;;;;3.35;2.55;;;23.10;64.00;;;;;;4958778;28;20022;-83
2021/09/10 07:06:39;;;;;;;4.60;2.92;;;23.20;64.10;;;;;;4963015;28;20031;-82
2021/09/10 07:09:05;;;;;;;3.72;2.70;;;23.20;64.10;;;;;;4976421;28;20033;-83
2021/09/10 07:11:35;;;;;;;3.25;2.50;;;23.20;64.10;;;;;;4934987;28;20022;-83
2021/09/10 07:14:02;;;;;;;3.25;2.45;;;23.20;64.10;;;;;;4942806;28;20483;-84
2021/09/10 07:16:29;;;;;;;3.92;2.75;;;23.20;64.10;;;;;;4958798;28;20023;-84
2021/09/10 07:18:55;;;;;;;4.18;2.88;;;23.20;64.10;;;;;;4965223;28;20081;-84
2021/09/10 07:21:20;;;;;;;3.42;2.60;;;23.20;64.10;;;;;;4943517;28;20054;-85
2021/09/10 07:23:47;;;;;;;3.78;2.75;;;23.20;64.10;;;;;;4919506;28;20031;-85
2021/09/10 07:26:13;;;;;;;3.55;2.75;;;23.20;64.10;;;;;;4957564;28;20035;-85
2021/09/10 07:28:39;;;;;;;3.38;2.65;;;23.20;64.10;;;;;;4956921;28;20031;-86
2021/09/10 07:31:06;;;;;;;3.25;2.40;;;23.20;64.10;;;;;;4959242;28;20098;-86
2021/09/10 07:33:40;;;;;;;3.38;2.60;;;23.20;64.10;;;;;;4971607;28;20027;-85
2021/09/10 07:36:06;;;;;;;3.90;2.85;;;23.20;64.10;;;;;;4959473;28;20058;-85
2021/09/10 07:38:34;;;;;;;3.92;2.70;;;23.30;64.10;;;;;;4919462;28;20031;-85
2021/09/10 07:41:00;;;;;;;3.22;2.45;;;23.30;64.10;;;;;;4976002;28;20347;-84
2021/09/10 07:43:26;;;;;;;4.13;2.90;;;23.20;64.10;;;;;;4975953;28;20034;-86
2021/09/10 07:45:52;;;;;;;3.63;2.58;;;23.30;64.10;;;;;;4926928;28;20495;-84
2021/09/10 07:48:18;;;;;;;3.33;2.47;;;23.30;64.10;;;;;;4943321;28;20047;-85
2021/09/10 07:50:44;;;;;;;3.33;2.65;;;23.30;64.10;;;;;;4974779;28;20035;-85
2021/09/10 07:53:10;;;;;;;3.90;2.78;;;23.30;64.10;;;;;;4936425;28;20058;-85
2021/09/10 07:55:38;;;;;;;3.60;2.70;;;23.30;64.10;;;;;;4975679;28;20046;-85
2021/09/10 07:58:04;;;;;;;3.67;2.70;;;23.30;64.10;;;;;;4942433;28;20061;-84
2021/09/10 08:00:31;;;;;;;3.05;2.45;;;23.30;64.10;;;;;;4966208;28;20097;-85
2021/09/10 08:02:57;;;;;;;3.47;2.40;;;23.30;64.10;;;;;;4949994;28;20066;-84
2021/09/10 08:05:23;;;;;;;4.22;2.75;;;23.30;64.10;;;;;;4975571;28;20512;-84
2021/09/10 08:07:49;;;;;;;4.05;2.42;;;23.30;64.10;;;;;;4942321;28;20062;-85
2021/09/10 08:10:16;;;;;;;3.20;2.38;;;23.30;64.10;;;;;;4950037;28;20043;-84
2021/09/10 08:12:43;;;;;;;3.20;2.63;;;23.40;64.20;;;;;;4942005;28;20015;-85
2021/09/10 08:15:10;;;;;;;4.00;2.85;;;23.40;64.20;;;;;;4975328;28;20030;-85
2021/09/10 08:17:36;;;;;;;4.47;2.60;;;23.40;64.20;;;;;;4962892;28;20039;-80
2021/09/10 08:20:02;;;;;;;3.10;2.40;;;23.40;64.20;;;;;;4943229;28;20039;-80
2021/09/10 08:22:28;;;;;;;3.75;2.60;;;23.40;64.20;;;;;;4937545;29;20070;-78
2021/09/10 08:24:55;;;;;;;2.90;2.40;;;23.40;64.20;;;;;;4971480;28;20035;-80
2021/09/10 08:27:21;;;;;;;3.42;2.50;;;23.50;64.20;;;;;;4929633;28;20023;-80
2021/09/10 08:29:46;;;;;;;3.20;2.47;;;23.50;64.20;;;;;;4966174;28;20096;-80
2021/09/10 08:32:12;;;;;;;4.07;2.70;;;23.50;64.20;;;;;;4973112;28;20038;-79
2021/09/10 08:34:38;;;;;;;3.10;2.55;;;23.50;64.20;;;;;;4964610;28;20042;-80
2021/09/10 08:37:03;;;;;;;4.20;2.90;;;23.50;64.30;;;;;;4973914;28;20046;-80
2021/09/10 08:39:30;;;;;;;2.88;2.58;;;23.50;64.20;;;;;;4973723;28;20038;-80
2021/09/10 08:41:56;;;;;;;3.25;2.50;;;23.50;64.20;;;;;;4934380;28;20113;-80
2021/09/10 08:44:22;;;;;;;4.03;2.70;;;23.60;64.30;;;;;;4932823;28;20046;-80
2021/09/10 08:46:48;;;;;;;3.20;2.45;;;23.60;64.30;;;;;;4932480;28;20051;-80
2021/09/10 08:49:15;;;;;;;3.88;2.70;;;23.60;64.30;;;;;;4956643;28;20037;-79
2021/09/10 08:51:42;;;;;;;3.60;2.60;;;23.60;64.30;;;;;;4973683;28;20125;-80
2021/09/10 08:54:07;;;;;;;4.53;2.75;;;23.60;64.30;;;;;;4934805;29;20056;-80
2021/09/10 08:56:33;;;;;;;3.38;2.50;;;23.70;64.30;;;;;;4969435;28;20041;-80
2021/09/10 08:59:10;;;;;;;3.13;2.60;;;23.70;64.30;;;;;;4953043;29;20027;-80
2021/09/10 09:01:54;;;;;;;3.30;2.63;;;23.70;64.40;;;;;;4970549;28;20035;-80
2021/09/10 09:04:21;;;;;;;3.97;2.50;;;23.70;64.40;;;;;;4968257;28;20027;-80
2021/09/10 09:06:51;;;;;;;3.78;2.67;;;23.70;64.30;;;;;;4973411;28;20106;-80
2021/09/10 09:09:36;;;;;;;3.63;2.70;;;23.80;64.40;;;;;;4956152;28;20085;-80
2021/09/10 09:12:21;;;;;;;3.83;2.53;;;23.80;64.40;;;;;;4963943;28;20037;-80
2021/09/10 09:14:57;;;;;;;3.72;2.60;;;23.80;64.40;;;;;;4960852;28;20030;-80
2021/09/10 09:17:32;;;;;;;3.03;2.42;;;23.80;64.30;;;;;;4956843;28;20027;-80
2021/09/10 09:20:14;;;;;;;4.53;2.60;;;23.80;64.40;;;;;;4944884;28;20061;-79
2021/09/10 09:23:04;;;;;;;3.72;2.67;;;23.90;64.40;;;;;;4964254;28;20027;-80
2021/09/10 09:25:40;;;;;;;3.65;2.70;;;23.90;64.50;;;;;;4961591;28;20094;-80
2021/09/10 09:28:18;;;;;;;3.70;2.42;;;23.90;64.30;;;;;;4969218;28;20061;-80
2021/09/10 09:30:46;;;;;;;4.15;2.28;;;23.90;64.40;;;;;;4964067;28;20137;-79
2021/09/10 09:33:14;;;;;;;3.55;2.63;;;24.00;64.30;;;;;;4939853;28;20471;-80
2021/09/10 09:35:41;;;;;;;3.13;2.10;;;24.00;64.30;;;;;;4956126;28;20141;-79
2021/09/10 09:38:19;;;;;;;2.95;2.53;;;24.00;64.30;;;;;;4963099;28;20035;-79
2021/09/10 09:40:51;;;;;;;2.78;2.20;;;24.00;64.40;;;;;;4932710;28;20031;-79
2021/09/10 09:43:40;;;;;;;3.75;2.47;;;24.10;64.30;;;;;;4960286;28;20044;-81
2021/09/10 09:46:09;;;;;;;2.58;2.20;;;24.10;64.50;;;;;;4967631;28;20485;-80
2021/09/10 09:48:38;;;;;;;3.08;2.40;;;24.20;64.30;;;;;;4972608;28;20019;-80
2021/09/10 09:51:04;;;;;;;2.92;2.20;;;24.20;64.30;;;;;;4939399;28;20122;-80
2021/09/10 09:53:31;;;;;;;3.20;2.20;;;24.20;64.30;;;;;;4972912;28;20086;-80
2021/09/10 09:55:59;;;;;;;3.50;2.53;;;24.20;64.20;;;;;;4972518;28;20055;-80
2021/09/10 09:58:27;;;;;;;3.67;2.50;;;24.30;64.30;;;;;;4939762;28;20073;-80
2021/09/10 10:00:53;;;;;;;2.75;2.25;;;24.40;64.30;;;;;;4972480;28;20034;-81
2021/09/10 10:03:19;;;;;;;2.55;2.33;;;24.40;64.30;;;;;;4955487;28;20129;-80
2021/09/10 10:06:03;;;;;;;3.35;2.30;;;24.40;64.30;;;;;;4963331;28;20062;-80
2021/09/10 10:08:37;;;;;;;3.75;2.38;;;24.50;64.60;;;;;;4955356;28;20114;-80
2021/09/10 10:11:39;;;;;;;3.35;2.17;;;24.50;64.40;;;;;;4938358;28;20030;-79
2021/09/10 10:14:06;;;;;;;4.25;2.35;;;24.50;64.50;;;;;;4971177;28;20029;-84
2021/09/10 10:16:36;;;;;;;3.30;2.22;;;24.60;64.40;;;;;;4941876;28;20054;-82
2021/09/10 10:19:26;;;;;;;3.28;2.17;;;24.60;64.50;;;;;;4955349;28;20027;-84
2021/09/10 10:21:54;;;;;;;2.72;2.03;;;24.70;64.50;;;;;;4967326;28;20047;-86
2021/09/10 10:24:57;;;;;;;3.28;2.42;;;24.80;64.50;;;;;;4963449;28;20180;-84
2021/09/10 10:27:31;;;;;;;3.30;2.25;;;24.80;64.70;;;;;;4969123;28;20110;-85
2021/09/10 10:29:58;;;;;;;3.33;2.35;;;24.90;64.60;;;;;;4953355;28;20046;-85
2021/09/10 10:32:36;;;;;;;3.38;2.17;;;24.90;64.50;;;;;;4955734;28;20522;-85
2021/09/10 10:35:13;;;;;;;3.17;2.03;;;25.00;64.70;;;;;;4953734;28;20038;-86
2021/09/10 10:37:42;;;;;;;2.75;2.08;;;25.00;64.70;;;;;;4966394;28;20050;-81
2021/09/10 10:40:28;;;;;;;3.08;2.30;;;25.10;64.60;;;;;;4945388;28;20027;-82
2021/09/10 10:42:58;;;;;;;3.17;2.13;;;25.10;64.70;;;;;;4949463;28;20110;-81
2021/09/10 10:45:41;;;;;;;2.90;2.22;;;25.20;64.40;;;;;;4931622;28;20031;-84
2021/09/10 10:48:35;;;;;;;3.05;2.17;;;25.20;64.60;;;;;;4968898;28;20033;-84
2021/09/10 10:51:29;;;;;;;2.67;2.00;;;25.30;64.60;;;;;;4968822;28;20062;-80
2021/09/10 10:53:55;;;;;;;2.53;2.05;;;25.30;64.50;;;;;;4944787;29;20493;-80
2021/09/10 10:56:44;;;;;;;2.78;1.90;;;25.30;64.20;;;;;;4934144;29;20110;-81
2021/09/10 10:59:17;;;;;;;2.30;1.70;;;25.40;64.40;;;;;;4931399;29;20485;-80
2021/09/10 11:02:14;;;;;;;2.97;2.10;;;25.40;64.10;;;;;;4925559;29;20036;-80
2021/09/10 11:04:41;;;;;;;2.53;1.92;;;25.50;64.10;;;;;;4952162;29;20027;-81
2021/09/10 11:07:08;;;;;;;2.38;1.90;;;25.50;64.60;;;;;;4935880;29;20034;-80
2021/09/10 11:09:34;;;;;;;2.35;1.83;;;25.50;63.90;;;;;;4936464;29;20035;-80
2021/09/10 11:12:00;;;;;;;3.10;2.20;;;25.60;64.00;;;;;;4927089;29;20046;-80
2021/09/10 11:14:34;;;;;;;2.22;1.88;;;25.60;64.00;;;;;;4907847;29;20035;-91
2021/09/10 11:17:13;;;;;;;2.33;1.75;;;25.60;64.00;;;;;;4921920;29;20023;-88
2021/09/10 11:19:45;;;;;;;2.67;2.03;;;25.70;64.10;;;;;;4932463;29;20032;-92
2021/09/10 11:22:11;;;;;;;2.42;1.77;;;25.80;64.10;;;;;;4920842;29;20461;-89
2021/09/10 11:24:37;;;;;;;2.45;1.95;;;25.80;63.90;;;;;;4938786;29;20024;-92
2021/09/10 11:27:20;;;;;;;2.67;1.92;;;25.80;64.10;;;;;;4945899;29;20036;-91
2021/09/10 11:29:48;;;;;;;2.67;2.10;;;25.80;64.10;;;;;;4948610;29;20465;-92
2021/09/10 11:32:26;;;;;;;3.03;1.88;;;25.90;64.20;;;;;;4929712;29;20058;-89
2021/09/10 11:34:57;;;;;;;3.33;1.80;;;25.90;64.20;;;;;;4939382;29;20059;-91
2021/09/10 11:37:33;;;;;;;2.53;1.70;;;26.00;64.20;;;;;;4937624;29;20034;-89
2021/09/10 11:40:01;;;;;;;2.63;1.67;;;26.00;64.10;;;;;;4937874;29;20060;-93
2021/09/10 11:42:41;;;;;;;2.55;1.70;;;26.00;63.90;;;;;;4930229;29;20036;-89
2021/09/10 11:45:13;;;;;;;2.53;1.60;;;26.10;63.90;;;;;;4905919;29;20039;-90
2021/09/10 11:47:41;;;;;;;2.45;1.80;;;26.10;63.80;;;;;;4938432;29;20028;-80
2021/09/10 11:50:10;;;;;;;2.38;1.65;;;26.10;63.60;;;;;;4943485;29;20401;-80
2021/09/10 11:52:38;;;;;;;2.78;1.63;;;26.20;63.60;;;;;;4944832;28;20437;-80
2021/09/10 11:55:16;;;;;;;2.35;1.65;;;26.20;63.40;;;;;;4941609;28;20517;-82
2021/09/10 11:57:44;;;;;;;2.35;1.90;;;26.30;63.50;;;;;;4957981;28;20042;-82
2021/09/10 12:00:23;;;;;;;2.90;2.20;;;26.30;63.40;;;;;;4957048;28;20037;-82
2021/09/10 12:02:59;;;;;;;2.30;1.88;;;26.30;64.10;;;;;;4975302;28;20031;-82
2021/09/10 12:05:25;;;;;;;3.03;2.30;;;26.30;63.30;;;;;;4967910;28;20031;-82
2021/09/10 12:07:52;;;;;;;3.42;2.30;;;26.30;63.30;;;;;;4957661;28;20105;-82
2021/09/10 12:10:29;;;;;;;3.65;2.47;;;26.30;63.30;;;;;;4972705;28;20034;-82
2021/09/10 12:13:21;;;;;;;3.33;2.30;;;26.30;63.40;;;;;;4951406;28;20031;-82
2021/09/10 12:15:48;;;;;;;3.30;2.30;;;26.30;63.40;;;;;;4965060;28;20135;-82
2021/09/10 12:18:18;;;;;;;3.58;2.30;;;26.30;63.30;;;;;;4964083;28;20041;-82
2021/09/10 12:20:52;;;;;;;3.40;2.40;;;26.30;63.40;;;;;;4975176;28;20048;-82
2021/09/10 12:23:20;;;;;;;4.05;2.40;;;26.30;63.40;;;;;;4974389;28;20102;-82
2021/09/10 12:25:59;;;;;;;3.30;2.22;;;26.30;63.50;;;;;;4957703;28;20104;-82
2021/09/10 12:28:33;;;;;;;3.05;2.15;;;26.30;63.60;;;;;;4957240;28;20046;-82
2021/09/10 12:31:09;;;;;;;4.00;2.55;;;26.30;63.60;;;;;;4941391;28;20039;-82
2021/09/10 12:33:38;;;;;;;2.63;2.03;;;26.30;63.60;;;;;;4949355;28;20026;-82
2021/09/10 12:36:08;;;;;;;4.43;2.58;;;26.30;63.60;;;;;;4974512;28;20019;-83
2021/09/10 12:38:41;;;;;;;3.60;2.42;;;26.30;63.60;;;;;;4948659;28;20039;-82
2021/09/10 12:41:09;;;;;;;3.58;2.50;;;26.30;63.70;;;;;;4957327;28;20030;-84
2021/09/10 12:43:36;;;;;;;3.60;2.35;;;26.30;63.70;;;;;;4941637;28;20118;-83
2021/09/10 12:46:06;;;;;;;3.75;2.67;;;26.20;63.60;;;;;;4949721;28;20058;-84
2021/09/10 12:48:32;;;;;;;4.07;2.40;;;26.20;63.70;;;;;;4949795;28;20066;-85
2021/09/10 12:50:59;;;;;;;3.40;2.55;;;26.20;63.70;;;;;;4960982;28;20047;-85
2021/09/10 12:53:26;;;;;;;4.22;2.55;;;26.20;63.70;;;;;;4974498;28;20055;-84
2021/09/10 12:55:53;;;;;;;3.80;2.78;;;26.20;63.80;;;;;;4966287;28;20633;-84